createdAt,value
2023-05-27T00:00:27.340Z,25
2023-05-27T00:05:26.949Z,25.1
2023-05-27T00:10:27.548Z,25.1
2023-05-27T00:15:28.185Z,25
2023-05-27T00:20:29.569Z,25
2023-05-27T00:25:29.929Z,25
2023-05-27T00:30:30.380Z,25
2023-05-27T00:35:31.139Z,25
2023-05-27T00:40:34.573Z,25
2023-05-27T00:45:37.419Z,25
2023-05-27T00:50:37.631Z,25
2023-05-27T00:55:38.105Z,25
2023-05-27T01:00:38.545Z,25
2023-05-27T01:05:39.096Z,25
2023-05-27T01:10:39.381Z,25
2023-05-27T01:15:42.455Z,25
2023-05-27T01:20:45.253Z,24.9
2023-05-27T01:25:45.931Z,24.9
2023-05-27T01:30:47.099Z,24.9
2023-05-27T01:35:47.430Z,24.9
2023-05-27T01:40:47.761Z,24.9
2023-05-27T01:45:48.091Z,24.9
2023-05-27T01:50:48.507Z,24.9
2023-05-27T01:55:49.169Z,24.8
2023-05-27T02:00:54.093Z,24.9
2023-05-27T02:05:56.777Z,24.9
2023-05-27T02:10:59.327Z,24.9
2023-05-27T02:16:03.352Z,24.9
2023-05-27T02:21:05.879Z,24.9
2023-05-27T02:26:09.623Z,24.9
2023-05-27T02:31:09.460Z,24.8
2023-05-27T02:36:10.042Z,24.8
2023-05-27T02:41:10.487Z,24.8
2023-05-27T02:46:13.593Z,24.8
2023-05-27T02:51:14.730Z,24.7
2023-05-27T02:56:17.973Z,24.8
2023-05-27T03:01:20.902Z,24.8
2023-05-27T03:06:23.777Z,24.7
2023-05-27T03:11:26.342Z,24.8
2023-05-27T03:16:26.473Z,24.7
2023-05-27T03:21:29.587Z,24.8
2023-05-27T03:26:31.332Z,24.8
2023-05-27T03:31:31.425Z,24.8
2023-05-27T03:36:32.099Z,24.7
2023-05-27T03:41:32.666Z,24.7
2023-05-27T03:46:00.895Z,24.7
2023-05-27T03:51:03.450Z,24.7
2023-05-27T03:56:04.049Z,24.7
2023-05-27T04:01:04.163Z,24.7
2023-05-27T04:06:04.708Z,24.7
2023-05-27T04:11:05.392Z,24.7
2023-05-27T04:16:05.711Z,24.7
2023-05-27T04:21:06.341Z,24.7
2023-05-27T04:26:07.961Z,24.7
2023-05-27T04:31:08.232Z,24.6
2023-05-27T04:36:09.529Z,24.6
2023-05-27T04:41:09.704Z,24.7
2023-05-27T04:46:10.252Z,24.6
2023-05-27T04:51:10.827Z,24.6
2023-05-27T04:56:14.150Z,24.6
2023-05-27T05:01:15.197Z,24.6
2023-05-27T05:06:18.267Z,24.6
2023-05-27T05:11:18.380Z,24.6
2023-05-27T05:16:19.035Z,24.6
2023-05-27T05:21:28.083Z,24.6
2023-05-27T05:26:27.248Z,24.6
2023-05-27T05:31:27.814Z,24.6
2023-05-27T05:36:28.357Z,24.6
2023-05-27T05:41:28.857Z,24.6
2023-05-27T05:46:29.612Z,24.6
2023-05-27T05:51:32.937Z,24.6
2023-05-27T05:56:32.964Z,24.6
2023-05-27T06:01:33.544Z,24.6
2023-05-27T06:06:34.063Z,24.5
2023-05-27T06:11:34.626Z,24.6
2023-05-27T06:16:35.390Z,24.6
2023-05-27T06:21:38.566Z,24.6
2023-05-27T06:26:38.591Z,24.6
2023-05-27T06:31:39.135Z,24.6
2023-05-27T06:36:39.610Z,24.6
2023-05-27T06:41:39.989Z,24.6
2023-05-27T06:46:40.624Z,24.6
2023-05-27T06:51:41.049Z,24.6
2023-05-27T06:56:41.439Z,24.6
2023-05-27T07:01:41.977Z,24.6
2023-05-27T07:06:46.778Z,24.5
2023-05-27T07:11:46.640Z,24.6
2023-05-27T07:16:46.977Z,24.6
2023-05-27T07:21:47.416Z,24.6
2023-05-27T07:26:50.850Z,24.6
2023-05-27T07:31:51.071Z,24.6
2023-05-27T07:36:59.819Z,24.6
2023-05-27T07:41:58.952Z,24.6
2023-05-27T07:46:59.369Z,24.6
2023-05-27T07:51:59.876Z,24.6
2023-05-27T07:57:03.941Z,24.6
2023-05-27T08:02:06.061Z,24.7
2023-05-27T08:07:08.699Z,24.7
2023-05-27T08:12:08.680Z,24.7
2023-05-27T08:17:12.117Z,24.7
2023-05-27T08:22:14.877Z,24.7
2023-05-27T08:27:15.495Z,24.7
2023-05-27T08:32:18.588Z,24.7
2023-05-27T08:37:21.228Z,24.7
2023-05-27T08:42:21.428Z,24.7
2023-05-27T08:47:24.737Z,24.7
2023-05-27T08:52:27.508Z,24.7
2023-05-27T08:57:27.496Z,24.7
2023-05-27T09:02:27.966Z,24.7
2023-05-27T09:07:28.365Z,24.7
2023-05-27T09:12:28.757Z,24.7
2023-05-27T09:17:29.456Z,24.7
2023-05-27T09:22:32.824Z,24.7
2023-05-27T09:27:35.536Z,24.7
2023-05-27T09:32:35.593Z,24.8
2023-05-27T09:37:36.123Z,24.8
2023-05-27T09:42:39.216Z,24.8
2023-05-27T09:47:39.423Z,24.7
2023-05-27T09:52:44.163Z,24.8
2023-05-27T09:57:41.165Z,24.7
2023-05-27T10:02:41.680Z,24.8
2023-05-27T10:07:54.639Z,24.8
2023-05-27T10:12:44.857Z,24.8
2023-05-27T10:17:45.478Z,24.9
2023-05-27T10:22:46.014Z,24.8
2023-05-27T10:27:46.591Z,24.9
2023-05-27T10:32:47.221Z,24.9
2023-05-27T10:37:47.642Z,24.9
2023-05-27T10:42:48.265Z,24.9
2023-05-27T10:47:49.533Z,24.8
2023-05-27T10:52:50.034Z,24.9
2023-05-27T10:57:50.529Z,24.9
2023-05-27T11:02:50.997Z,24.9
2023-05-27T11:07:54.444Z,24.9
2023-05-27T11:12:54.552Z,24.9
2023-05-27T11:17:57.903Z,24.9
2023-05-27T11:22:58.092Z,24.9
2023-05-27T11:27:58.593Z,24.9
2023-05-27T11:32:49.290Z,24.9
2023-05-27T11:37:49.803Z,24.9
2023-05-27T11:42:53.156Z,24.9
2023-05-27T11:47:53.377Z,24.9
2023-05-27T11:52:53.796Z,24.9
2023-05-27T11:57:56.353Z,24.9
2023-05-27T12:02:56.442Z,25
2023-05-27T12:07:56.795Z,25
2023-05-27T12:12:57.279Z,25
2023-05-27T12:17:58.126Z,25.1
2023-05-27T12:22:58.897Z,25
2023-05-27T12:28:02.351Z,25.1
2023-05-27T12:33:05.492Z,25.2
2023-05-27T12:38:05.549Z,25.1
2023-05-27T12:43:08.663Z,25.2
2023-05-27T12:48:08.978Z,25.1
2023-05-27T12:53:09.538Z,25.1
2023-05-27T12:58:12.959Z,25.2
2023-05-27T13:03:13.212Z,25.2
2023-05-27T13:08:16.506Z,25.3
2023-05-27T13:13:16.643Z,25.2
2023-05-27T13:18:17.289Z,25.3
2023-05-27T13:23:17.802Z,25.2
2023-05-27T13:28:18.409Z,25.3
2023-05-27T13:33:20.707Z,25.2
2023-05-27T13:38:23.747Z,25.3
2023-05-27T13:43:26.610Z,25.3
2023-05-27T13:48:27.597Z,25.3
2023-05-27T13:53:28.072Z,25.3
2023-05-27T13:58:28.518Z,25.3
2023-05-27T14:03:29.194Z,25.3
2023-05-27T14:08:44.792Z,25.4
2023-05-27T14:13:43.327Z,25.3
2023-05-27T14:18:44.225Z,25.3
2023-05-27T14:23:44.502Z,25.4
2023-05-27T14:28:45.169Z,25.4
2023-05-27T14:33:45.855Z,25.3
2023-05-27T14:38:46.439Z,25.3
2023-05-27T14:43:46.912Z,25.3
2023-05-27T14:48:51.189Z,25.4
2023-05-27T14:53:51.244Z,25.4
2023-05-27T14:58:54.670Z,25.5
2023-05-27T15:03:54.770Z,25.4
2023-05-27T15:08:54.958Z,25.5
2023-05-27T15:13:55.605Z,25.5
2023-05-27T15:18:59.809Z,25.5
2023-05-27T15:23:59.724Z,25.5
2023-05-27T15:29:00.372Z,25.5
2023-05-27T15:34:00.992Z,25.5
2023-05-27T15:39:01.551Z,25.5
2023-05-27T15:44:03.105Z,25.5
2023-05-27T15:49:05.517Z,25.5
2023-05-27T15:54:05.782Z,25.5
2023-05-27T15:59:08.714Z,25.5
2023-05-27T16:04:12.526Z,25.5
2023-05-27T16:09:12.322Z,25.5
2023-05-27T16:14:12.733Z,25.5
2023-05-27T16:19:15.860Z,25.6
2023-05-27T16:24:15.956Z,25.5
2023-05-27T16:29:16.188Z,25.6
2023-05-27T16:34:16.736Z,25.6
2023-05-27T16:39:16.999Z,25.6
2023-05-27T16:44:17.564Z,25.6
2023-05-27T16:49:18.074Z,25.6
2023-05-27T16:54:20.321Z,25.6
2023-05-27T16:59:24.179Z,25.6
2023-05-27T17:04:23.977Z,25.6
2023-05-27T17:09:24.501Z,25.6
2023-05-27T17:14:25.172Z,25.6
2023-05-27T17:19:25.728Z,25.6
2023-05-27T17:24:26.991Z,25.6
2023-05-27T17:29:30.286Z,25.6
2023-05-27T17:34:30.292Z,25.7
2023-05-27T17:39:30.850Z,25.7
2023-05-27T17:44:31.479Z,25.7
2023-05-27T17:49:32.140Z,25.6
2023-05-27T17:54:35.397Z,25.7
2023-05-27T17:59:35.655Z,25.6
2023-05-27T18:04:36.156Z,25.7
2023-05-27T18:09:36.774Z,25.7
2023-05-27T18:14:38.507Z,25.7
2023-05-27T18:19:38.747Z,25.6
2023-05-27T18:24:40.269Z,25.7
2023-05-27T18:29:40.730Z,25.6
2023-05-27T18:34:41.314Z,25.6
2023-05-27T18:39:41.547Z,25.6
2023-05-27T18:44:44.807Z,25.6
2023-05-27T18:49:44.830Z,25.5
2023-05-27T18:54:48.134Z,25.5
2023-05-27T18:59:50.771Z,25.5
2023-05-27T19:04:50.804Z,25.5
2023-05-27T19:09:51.296Z,25.5
2023-05-27T19:14:51.710Z,25.4
2023-05-27T19:19:53.448Z,25.4
2023-05-27T19:24:53.883Z,25.4
2023-05-27T19:29:54.316Z,25.4
2023-05-27T19:34:54.901Z,25.4
2023-05-27T19:39:55.442Z,25.3
2023-05-27T19:44:56.036Z,25.3
2023-05-27T19:49:56.441Z,25.3
2023-05-27T19:54:59.636Z,25.3
2023-05-27T20:00:02.307Z,25.3
2023-05-27T20:05:02.326Z,25.3
2023-05-27T20:10:02.725Z,25.3
2023-05-27T20:15:03.131Z,25.3
2023-05-27T20:20:03.871Z,25.2
2023-05-27T20:25:04.281Z,25.2
2023-05-27T20:30:05.843Z,25.2
2023-05-27T20:35:06.377Z,25.2
2023-05-27T20:40:06.823Z,25.2
2023-05-27T20:45:10.423Z,25.2
2023-05-27T20:50:11.086Z,25.2
2023-05-27T20:55:11.461Z,25.1
2023-05-27T21:00:12.069Z,25.2
2023-05-27T21:05:12.739Z,25.1
2023-05-27T21:10:13.929Z,25.1
2023-05-27T21:15:14.204Z,25.1
2023-05-27T21:20:17.529Z,25.1
2023-05-27T21:25:20.268Z,25.1
2023-05-27T21:30:23.098Z,25.1
2023-05-27T21:35:23.282Z,25.1
2023-05-27T21:40:23.838Z,25.1
2023-05-27T21:45:24.405Z,25.1
2023-05-27T21:50:28.243Z,25.1
2023-05-27T21:55:27.857Z,25.1
2023-05-27T22:00:28.160Z,25
2023-05-27T22:05:28.736Z,25
2023-05-27T22:10:29.215Z,25
2023-05-27T22:15:32.442Z,25
2023-05-27T22:20:35.222Z,25
2023-05-27T22:25:37.842Z,25
2023-05-27T22:30:37.696Z,25
2023-05-27T22:35:41.154Z,25
2023-05-27T22:40:41.134Z,25
2023-05-27T22:45:41.880Z,24.9
2023-05-27T22:50:42.508Z,25
2023-05-27T22:55:42.832Z,25
2023-05-27T23:00:46.193Z,25
2023-05-27T23:05:46.269Z,25
2023-05-27T23:10:49.537Z,25
2023-05-27T23:15:49.531Z,25
2023-05-27T23:20:49.776Z,25
2023-05-27T23:25:53.095Z,25
2023-05-27T23:30:56.122Z,25
2023-05-27T23:35:56.321Z,25
2023-05-27T23:40:56.578Z,24.9
2023-05-27T23:45:53.914Z,24.9
2023-05-27T23:50:53.857Z,24.9
2023-05-27T23:55:54.476Z,24.9
